Time;durP1;ratioP1;P1;durP2;ratioP2;P2;SDS_P1;SDS_P2;PMS_P1;PMS_P2;Temp;Humidity;BMP_temperature;BMP_pressure;BME280_temperature;BME280_humidity;BME280_pressure;Samples;Min_cycle;Max_cycle;Signal;HPM_P1;HPM_P2
2021/12/26 00:01:30;;;;;;;10.70;10.15;;;;;;;-2.17;100.00;100587.25;4972714;28;20035;-71
2021/12/26 00:03:56;;;;;;;10.88;10.27;;;;;;;-2.22;100.00;100581.47;4971188;28;20026;-70
2021/12/26 00:06:28;;;;;;;10.75;10.23;;;;;;;-2.34;100.00;100571.84;4972865;28;20102;-68
2021/12/26 00:08:56;;;;;;;11.45;10.85;;;;;;;-2.29;100.00;100564.59;4972721;28;20035;-67
2021/12/26 00:11:23;;;;;;;11.18;10.57;;;;;;;-2.25;100.00;100559.13;4974426;28;20023;-69
2021/12/26 00:13:50;;;;;;;10.40;9.90;;;;;;;-2.24;100.00;100565.16;4972735;28;20058;-70
2021/12/26 00:16:16;;;;;;;10.57;10.07;;;;;;;-2.23;100.00;100580.66;4972628;28;20046;-71
2021/12/26 00:18:45;;;;;;;10.20;9.70;;;;;;;-2.23;100.00;100604.03;4972864;28;20056;-70
2021/12/26 00:21:11;;;;;;;10.98;10.38;;;;;;;-2.31;100.00;100608.03;4973814;28;20030;-70
2021/12/26 00:23:37;;;;;;;11.27;10.68;;;;;;;-2.38;100.00;100602.34;4972925;28;20383;-69
2021/12/26 00:26:03;;;;;;;10.77;10.23;;;;;;;-2.25;100.00;100602.47;4972857;28;20031;-71
2021/12/26 00:28:29;;;;;;;11.07;10.48;;;;;;;-2.35;100.00;100604.78;4970885;28;20066;-70
2021/12/26 00:30:55;;;;;;;10.55;10.05;;;;;;;-2.28;100.00;100605.22;4972485;28;20446;-69
2021/12/26 00:33:21;;;;;;;10.85;10.32;;;;;;;-2.30;100.00;100612.28;4960315;28;20019;-68
2021/12/26 00:35:46;;;;;;;10.63;10.13;;;;;;;-2.29;100.00;100616.56;4972437;28;20023;-70
2021/12/26 00:38:13;;;;;;;11.05;10.45;;;;;;;-2.28;100.00;100621.69;4972818;28;20374;-66
2021/12/26 00:40:39;;;;;;;10.90;10.30;;;;;;;-2.25;100.00;100616.28;4972656;28;20441;-69
2021/12/26 00:43:05;;;;;;;10.32;9.82;;;;;;;-2.31;100.00;100611.44;4972474;28;20023;-67
2021/12/26 00:45:31;;;;;;;10.93;10.43;;;;;;;-2.35;100.00;100615.16;4972253;28;20034;-69
2021/12/26 00:47:57;;;;;;;11.02;10.45;;;;;;;-2.33;100.00;100620.28;4972929;28;20027;-70
2021/12/26 00:50:29;;;;;;;10.88;10.27;;;;;;;-2.37;100.00;100617.00;4972509;28;20038;-67
2021/12/26 00:52:56;;;;;;;10.30;9.80;;;;;;;-2.40;100.00;100617.19;4972116;28;20058;-68
2021/12/26 00:55:22;;;;;;;10.88;10.38;;;;;;;-2.41;100.00;100612.09;4972126;28;20029;-66
2021/12/26 00:57:48;;;;;;;10.30;9.80;;;;;;;-2.42;100.00;100629.44;4974216;28;20035;-70
2021/12/26 01:00:20;;;;;;;11.27;10.68;;;;;;;-2.48;100.00;100635.00;4976809;28;20114;-71
2021/12/26 01:02:47;;;;;;;10.95;10.35;;;;;;;-2.50;100.00;100636.81;4978698;28;20026;-70
2021/12/26 01:05:13;;;;;;;10.57;10.07;;;;;;;-2.53;100.00;100644.81;4978865;28;20043;-70
2021/12/26 01:08:25;;;;;;;10.95;10.38;;;;;;;-2.53;100.00;100650.00;4978546;28;20031;-69
2021/12/26 01:11:05;;;;;;;11.90;11.20;;;;;;;-2.60;100.00;100636.53;4977852;28;20101;-70
2021/12/26 01:13:34;;;;;;;10.90;10.38;;;;;;;-2.54;100.00;100625.78;4971987;28;20488;-70
2021/12/26 01:16:05;;;;;;;10.80;10.20;;;;;;;-2.54;100.00;100630.16;4972930;28;20431;-71
2021/12/26 01:18:35;;;;;;;10.63;10.13;;;;;;;-2.51;100.00;100633.38;4978427;28;20499;-68
2021/12/26 01:21:15;;;;;;;10.05;9.60;;;;;;;-2.54;100.00;100628.38;4978431;28;20027;-68
2021/12/26 01:23:41;;;;;;;10.52;10.02;;;;;;;-2.53;100.00;100630.06;4978376;28;20479;-70
2021/12/26 01:26:06;;;;;;;10.70;10.20;;;;;;;-2.56;100.00;100630.25;4978339;28;20055;-68
2021/12/26 01:28:32;;;;;;;10.60;10.05;;;;;;;-2.50;100.00;100642.00;4978285;28;20069;-71
2021/12/26 01:30:58;;;;;;;11.00;10.43;;;;;;;-2.54;100.00;100643.97;4978375;28;20068;-71
2021/12/26 01:33:26;;;;;;;9.63;9.23;;;;;;;-2.61;100.00;100639.22;4978475;28;20019;-70
2021/12/26 01:35:52;;;;;;;10.38;9.88;;;;;;;-2.53;100.00;100632.66;4978357;28;20031;-68
2021/12/26 01:38:18;;;;;;;10.70;10.20;;;;;;;-2.60;100.00;100613.16;4978306;28;20054;-67
2021/12/26 01:40:48;;;;;;;10.60;10.10;;;;;;;-2.63;100.00;100618.53;4979553;28;20023;-69
2021/12/26 01:43:16;;;;;;;10.43;9.93;;;;;;;-2.74;100.00;100615.69;4978287;28;20122;-69
2021/12/26 01:45:42;;;;;;;10.85;10.27;;;;;;;-2.63;100.00;100605.56;4978172;28;20085;-67
2021/12/26 01:48:08;;;;;;;10.10;9.65;;;;;;;-2.60;100.00;100612.31;4978416;28;20034;-68
2021/12/26 01:50:35;;;;;;;10.30;9.80;;;;;;;-2.60;100.00;100607.13;4978331;28;20477;-71
2021/12/26 01:53:00;;;;;;;10.68;10.18;;;;;;;-2.63;100.00;100612.50;4977748;28;20520;-69
2021/12/26 01:55:38;;;;;;;10.68;10.18;;;;;;;-2.58;100.00;100606.09;4979659;28;20027;-70
2021/12/26 01:58:07;;;;;;;10.52;10.02;;;;;;;-2.65;100.00;100614.34;4977268;28;20111;-72
2021/12/26 02:00:33;;;;;;;10.90;10.30;;;;;;;-2.66;100.00;100610.06;4979522;28;20122;-69
2021/12/26 02:03:00;;;;;;;10.77;10.27;;;;;;;-2.76;100.00;100617.56;4978258;28;20050;-72
2021/12/26 02:05:26;;;;;;;10.27;9.77;;;;;;;-2.72;100.00;100620.81;4978094;28;20109;-69
2021/12/26 02:07:52;;;;;;;10.82;10.23;;;;;;;-2.78;100.00;100635.81;4973685;28;20019;-69
2021/12/26 02:10:18;;;;;;;10.68;10.18;;;;;;;-2.73;100.00;100630.34;4975095;28;20082;-69
2021/12/26 02:12:43;;;;;;;10.70;10.15;;;;;;;-2.80;100.00;100631.63;4975009;28;20114;-70
2021/12/26 02:15:10;;;;;;;10.60;10.10;;;;;;;-2.83;100.00;100637.00;4974923;28;20031;-70
2021/12/26 02:17:35;;;;;;;10.77;10.27;;;;;;;-2.73;100.00;100629.50;4974978;28;20035;-72
2021/12/26 02:20:26;;;;;;;10.45;9.95;;;;;;;-2.71;100.00;100638.91;4974854;28;20510;-69
2021/12/26 02:22:57;;;;;;;11.20;10.60;;;;;;;-2.72;100.00;100637.22;4970788;28;20034;-71
2021/12/26 02:28:07;;;;;;;11.07;10.52;;;;;;;-2.76;100.00;100634.91;4976438;28;20036;-68
2021/12/26 02:30:32;;;;;;;10.45;9.95;;;;;;;-2.83;100.00;100640.44;4974746;28;20038;-68
2021/12/26 02:33:00;;;;;;;11.27;10.68;;;;;;;-2.78;100.00;100643.59;4975759;28;20031;-68
2021/12/26 02:35:26;;;;;;;11.02;10.50;;;;;;;-2.76;100.00;100635.72;4974365;28;20505;-67
2021/12/26 02:37:51;;;;;;;11.25;10.65;;;;;;;-2.79;100.00;100638.50;4974756;28;20023;-67
2021/12/26 02:40:17;;;;;;;10.88;10.38;;;;;;;-2.72;100.00;100646.75;4975704;28;20073;-68
2021/12/26 02:42:44;;;;;;;11.23;10.63;;;;;;;-2.82;100.00;100638.66;4974431;28;20035;-69
2021/12/26 02:45:09;;;;;;;10.68;10.13;;;;;;;-2.72;100.00;100641.56;4974745;28;20097;-69
2021/12/26 02:47:39;;;;;;;10.82;10.27;;;;;;;-2.65;100.00;100648.09;4974396;28;20473;-68
2021/12/26 02:50:14;;;;;;;11.48;10.85;;;;;;;-2.70;100.00;100655.31;4963887;28;20366;-66
2021/12/26 02:52:41;;;;;;;10.32;9.82;;;;;;;-2.78;100.00;100646.22;4975061;28;20471;-70
2021/12/26 02:55:07;;;;;;;11.60;10.98;;;;;;;-2.83;100.00;100647.38;4974171;28;20389;-70
2021/12/26 02:57:33;;;;;;;10.45;9.95;;;;;;;-2.79;100.00;100656.69;4974218;28;20440;-70
2021/12/26 03:00:11;;;;;;;10.20;9.70;;;;;;;-2.81;100.00;100650.72;4974564;28;20033;-68
2021/12/26 03:02:41;;;;;;;11.65;11.05;;;;;;;-2.91;100.00;100652.16;4974163;28;20097;-71
2021/12/26 03:05:07;;;;;;;10.73;10.23;;;;;;;-2.80;100.00;100660.19;4974019;28;20027;-71
2021/12/26 03:07:33;;;;;;;10.55;10.05;;;;;;;-2.75;100.00;100665.97;4972163;28;20094;-69
2021/12/26 03:10:00;;;;;;;10.38;9.88;;;;;;;-2.73;100.00;100658.06;4963187;28;20039;-71
2021/12/26 03:12:28;;;;;;;10.10;9.60;;;;;;;-2.71;100.00;100666.63;4974120;28;20038;-70
2021/12/26 03:14:53;;;;;;;10.00;9.50;;;;;;;-2.86;100.00;100668.34;4973912;28;20073;-69
2021/12/26 03:17:19;;;;;;;11.52;10.90;;;;;;;-2.88;100.00;100667.56;4973577;28;20035;-69
2021/12/26 03:19:45;;;;;;;9.88;9.48;;;;;;;-2.88;100.00;100667.56;4974037;28;20057;-70
2021/12/26 03:22:11;;;;;;;10.15;9.65;;;;;;;-2.91;100.00;100665.16;4972567;28;20058;-71
2021/12/26 03:24:38;;;;;;;10.82;10.25;;;;;;;-2.83;100.00;100673.34;4973792;28;20027;-69
2021/12/26 03:27:05;;;;;;;11.10;10.50;;;;;;;-2.83;100.00;100668.16;4973964;28;20035;-69
2021/12/26 03:29:31;;;;;;;10.70;10.13;;;;;;;-2.80;100.00;100675.75;4973954;28;20027;-71
2021/12/26 03:31:56;;;;;;;10.15;9.65;;;;;;;-2.78;100.00;100671.34;4974909;28;20023;-68
2021/12/26 03:34:22;;;;;;;10.10;9.60;;;;;;;-2.78;100.00;100677.38;4972016;28;20019;-73
2021/12/26 03:36:51;;;;;;;10.50;10.00;;;;;;;-2.79;100.00;100680.06;4963385;28;20031;-69
2021/12/26 03:39:18;;;;;;;10.15;9.65;;;;;;;-2.82;100.00;100688.00;4974389;28;20458;-70
2021/12/26 03:41:44;;;;;;;10.93;10.35;;;;;;;-2.73;100.00;100684.03;4973516;28;20473;-69
2021/12/26 03:44:11;;;;;;;10.00;9.50;;;;;;;-2.73;100.00;100684.03;4973600;28;20041;-70
2021/12/26 03:46:37;;;;;;;10.40;9.90;;;;;;;-2.85;100.00;100689.00;4974867;28;20042;-70
2021/12/26 03:49:05;;;;;;;10.45;9.95;;;;;;;-2.74;100.00;100691.00;4973741;28;20022;-71
2021/12/26 03:51:32;;;;;;;10.68;10.10;;;;;;;-2.71;100.00;100697.78;4973968;28;20034;-68
2021/12/26 03:53:58;;;;;;;10.45;9.95;;;;;;;-2.79;100.00;100700.81;4973830;28;20043;-72
2021/12/26 03:56:23;;;;;;;10.35;9.85;;;;;;;-2.79;100.00;100698.22;4973788;28;20039;-71
2021/12/26 03:58:49;;;;;;;10.30;9.80;;;;;;;-2.79;100.00;100690.44;4973441;28;20027;-70
2021/12/26 04:01:15;;;;;;;10.65;10.13;;;;;;;-2.84;100.00;100697.63;4972984;28;20496;-70
2021/12/26 04:03:41;;;;;;;11.20;10.60;;;;;;;-2.78;100.00;100697.31;4973030;28;20026;-69
2021/12/26 04:06:06;;;;;;;11.25;10.65;;;;;;;-2.80;100.00;100705.16;4972968;28;20405;-70
2021/12/26 04:08:32;;;;;;;10.35;9.85;;;;;;;-2.83;100.00;100691.50;4972884;28;20023;-69
2021/12/26 04:10:57;;;;;;;10.70;10.20;;;;;;;-2.77;100.00;100704.16;4972938;28;20382;-68
2021/12/26 04:13:23;;;;;;;11.35;10.75;;;;;;;-2.80;100.00;100719.88;4974016;28;20129;-68
2021/12/26 04:15:48;;;;;;;10.35;9.85;;;;;;;-2.82;100.00;100711.34;4972621;28;20038;-71
2021/12/26 04:18:14;;;;;;;11.52;10.93;;;;;;;-2.91;100.00;100714.47;4972775;28;20444;-71
2021/12/26 04:20:39;;;;;;;11.15;10.55;;;;;;;-2.82;100.00;100708.75;4972648;28;20026;-68
2021/12/26 04:23:05;;;;;;;11.15;10.57;;;;;;;-2.85;100.00;100714.97;4972765;28;20019;-71
2021/12/26 04:25:30;;;;;;;10.63;10.13;;;;;;;-2.87;100.00;100711.59;4974306;28;20358;-71
2021/12/26 04:27:56;;;;;;;10.98;10.38;;;;;;;-2.82;100.00;100730.38;4972418;28;20031;-68
2021/12/26 04:30:23;;;;;;;10.75;10.25;;;;;;;-2.92;100.00;100730.97;4972740;28;20564;-69
2021/12/26 04:32:49;;;;;;;10.85;10.35;;;;;;;-2.91;100.00;100733.47;4961055;28;20015;-67
2021/12/26 04:35:16;;;;;;;10.45;9.95;;;;;;;-3.02;100.00;100732.38;4972358;28;20037;-69
2021/12/26 04:37:42;;;;;;;10.52;10.02;;;;;;;-2.98;100.00;100736.47;4973649;28;20496;-71
2021/12/26 04:40:10;;;;;;;10.93;10.35;;;;;;;-2.92;100.00;100726.59;4972455;28;20077;-70
2021/12/26 04:42:37;;;;;;;10.73;10.13;;;;;;;-2.94;100.00;100735.38;4972969;28;20019;-69
2021/12/26 04:45:09;;;;;;;9.82;9.43;;;;;;;-2.93;100.00;100727.53;4973770;28;20523;-67
2021/12/26 04:47:36;;;;;;;10.45;9.98;;;;;;;-2.92;100.00;100738.75;4972557;28;20019;-71
2021/12/26 04:50:03;;;;;;;11.20;10.60;;;;;;;-2.87;100.00;100734.97;4973606;28;20045;-68
2021/12/26 04:52:29;;;;;;;10.30;9.80;;;;;;;-2.90;100.00;100737.72;4972387;28;20046;-69
2021/12/26 04:54:54;;;;;;;10.65;10.15;;;;;;;-3.03;100.00;100738.47;4973545;28;20019;-67
2021/12/26 04:57:20;;;;;;;11.35;10.75;;;;;;;-3.00;100.00;100746.97;4970522;28;20033;-71
2021/12/26 04:59:45;;;;;;;10.55;10.05;;;;;;;-2.95;100.00;100749.28;4973613;28;20085;-70
2021/12/26 05:02:11;;;;;;;10.48;9.98;;;;;;;-2.92;100.00;100749.97;4972397;28;20050;-67
2021/12/26 05:04:37;;;;;;;10.57;10.07;;;;;;;-2.98;100.00;100749.47;4972292;28;20038;-69
2021/12/26 05:07:03;;;;;;;10.13;9.63;;;;;;;-3.01;100.00;100739.22;4972324;28;20031;-71
2021/12/26 05:09:29;;;;;;;10.50;10.00;;;;;;;-3.00;100.00;100741.75;4974166;28;20031;-67
2021/12/26 05:11:57;;;;;;;11.02;10.43;;;;;;;-2.97;100.00;100751.97;4984886;28;20043;-68
2021/12/26 05:14:24;;;;;;;11.05;10.45;;;;;;;-3.01;100.00;100745.28;4968883;28;20034;-69
2021/12/26 05:16:50;;;;;;;10.63;10.13;;;;;;;-3.10;100.00;100744.00;4972374;28;20035;-68
2021/12/26 05:19:15;;;;;;;10.82;10.32;;;;;;;-3.08;100.00;100749.13;4972041;28;20023;-69
2021/12/26 05:21:40;;;;;;;11.07;10.48;;;;;;;-3.02;100.00;100748.78;4972040;28;20038;-71
2021/12/26 05:24:06;;;;;;;11.25;10.65;;;;;;;-2.98;100.00;100749.47;4971925;28;20114;-70
2021/12/26 05:26:31;;;;;;;10.10;9.60;;;;;;;-3.01;100.00;100755.66;4972264;28;20082;-69
2021/12/26 05:28:57;;;;;;;10.25;9.75;;;;;;;-3.04;100.00;100761.00;4962877;28;20038;-68
2021/12/26 05:31:22;;;;;;;10.48;9.98;;;;;;;-2.95;100.00;100754.47;4972019;28;20510;-70
2021/12/26 05:33:48;;;;;;;10.30;9.80;;;;;;;-3.00;100.00;100748.72;4972089;28;20023;-68
2021/12/26 05:36:13;;;;;;;11.10;10.50;;;;;;;-3.11;100.00;100742.31;4971836;28;20481;-67
2021/12/26 05:38:39;;;;;;;11.10;10.50;;;;;;;-2.99;100.00;100764.19;4971748;28;20026;-69
2021/12/26 05:41:05;;;;;;;10.68;10.18;;;;;;;-3.10;100.00;100756.97;4968754;28;20020;-71
2021/12/26 05:43:30;;;;;;;10.70;10.20;;;;;;;-3.06;100.00;100758.50;4963510;28;20094;-70
2021/12/26 05:45:56;;;;;;;10.60;10.10;;;;;;;-2.98;100.00;100762.44;4974934;28;20046;-69
2021/12/26 05:48:21;;;;;;;11.27;10.63;;;;;;;-3.18;100.00;100764.31;4976048;28;20522;-67
2021/12/26 05:50:47;;;;;;;11.52;10.82;;;;;;;-3.06;100.00;100760.25;4975539;28;20019;-68
2021/12/26 05:53:12;;;;;;;9.95;9.45;;;;;;;-2.97;100.00;100766.72;4977325;28;20043;-68
2021/12/26 05:55:38;;;;;;;9.50;9.10;;;;;;;-3.03;100.00;100773.06;4977827;28;20389;-71
2021/12/26 05:58:03;;;;;;;10.15;9.65;;;;;;;-2.90;100.00;100781.03;4976626;28;20123;-70
2021/12/26 06:00:29;;;;;;;10.32;9.82;;;;;;;-3.05;100.00;100780.09;4975662;28;20428;-69
2021/12/26 06:02:54;;;;;;;10.18;9.68;;;;;;;-2.95;100.00;100778.66;4975306;28;20023;-71
2021/12/26 06:05:20;;;;;;;11.15;10.55;;;;;;;-3.01;100.00;100775.56;4975155;28;20022;-69
2021/12/26 06:07:46;;;;;;;10.20;9.70;;;;;;;-2.96;100.00;100781.34;4974930;28;20082;-70
2021/12/26 06:10:12;;;;;;;10.38;9.88;;;;;;;-2.86;100.00;100790.34;4975137;28;20032;-70
2021/12/26 06:12:38;;;;;;;10.23;9.73;;;;;;;-2.85;100.00;100794.59;4975108;28;20039;-71
2021/12/26 06:15:04;;;;;;;10.80;10.20;;;;;;;-2.91;100.00;100800.97;4975135;28;20037;-68
2021/12/26 06:17:30;;;;;;;10.10;9.60;;;;;;;-2.90;100.00;100797.44;4975966;28;20034;-70
2021/12/26 06:19:55;;;;;;;10.98;10.38;;;;;;;-2.76;100.00;100801.91;4975498;28;20030;-71
2021/12/26 06:22:21;;;;;;;9.85;9.35;;;;;;;-2.89;100.00;100793.91;4974979;28;20084;-70
2021/12/26 06:24:47;;;;;;;10.57;10.02;;;;;;;-2.80;100.00;100802.97;4973657;28;20033;-69
2021/12/26 06:27:12;;;;;;;10.45;9.95;;;;;;;-2.80;100.00;100815.94;4974709;28;20030;-71
2021/12/26 06:29:37;;;;;;;10.38;9.88;;;;;;;-2.78;100.00;100816.72;4975117;28;20030;-70
2021/12/26 06:32:04;;;;;;;10.57;10.07;;;;;;;-2.83;100.00;100810.94;4975766;28;20106;-69
2021/12/26 06:34:30;;;;;;;10.10;9.65;;;;;;;-2.86;100.00;100798.13;4976003;28;20027;-67
2021/12/26 06:36:55;;;;;;;10.30;9.80;;;;;;;-2.89;100.00;100801.72;4975861;28;20031;-70
2021/12/26 06:39:21;;;;;;;10.45;9.95;;;;;;;-2.70;100.00;100814.53;4975248;28;20082;-71
2021/12/26 06:41:46;;;;;;;10.85;10.25;;;;;;;-2.65;100.00;100822.91;4975161;28;20500;-70
2021/12/26 06:44:12;;;;;;;10.57;10.07;;;;;;;-2.74;100.00;100809.59;4975624;28;20034;-73
2021/12/26 06:46:38;;;;;;;10.43;9.93;;;;;;;-2.74;100.00;100819.97;4974734;28;20492;-68
2021/12/26 06:49:04;;;;;;;11.00;10.40;;;;;;;-2.99;100.00;100820.47;4974539;28;20035;-70
2021/12/26 06:51:30;;;;;;;11.07;10.55;;;;;;;-2.98;100.00;100832.50;4972820;28;20031;-68
2021/12/26 06:53:56;;;;;;;10.80;10.30;;;;;;;-3.40;100.00;100832.06;4974145;28;20043;-70
2021/12/26 06:56:21;;;;;;;11.40;10.80;;;;;;;-3.32;100.00;100831.66;4973609;28;20033;-71
2021/12/26 06:58:46;;;;;;;11.00;10.50;;;;;;;-3.28;100.00;100819.38;4974505;28;20027;-70
2021/12/26 07:01:12;;;;;;;11.90;11.30;;;;;;;-2.98;100.00;100829.91;4974023;28;20113;-70
2021/12/26 07:03:38;;;;;;;11.32;10.73;;;;;;;-2.69;100.00;100841.34;4972849;28;20043;-69
2021/12/26 07:06:04;;;;;;;11.73;11.02;;;;;;;-2.76;100.00;100848.63;4972870;28;20027;-67
2021/12/26 07:08:29;;;;;;;11.10;10.50;;;;;;;-2.75;100.00;100852.91;4973246;28;20385;-69
2021/12/26 07:10:55;;;;;;;11.05;10.45;;;;;;;-2.52;100.00;100857.69;4975496;28;20067;-69
2021/12/26 07:13:21;;;;;;;11.98;11.20;;;;;;;-2.34;100.00;100863.66;4974091;28;20385;-71
2021/12/26 07:15:46;;;;;;;10.85;10.25;;;;;;;-2.88;100.00;100857.88;4973696;28;20093;-68
2021/12/26 07:18:12;;;;;;;10.70;10.20;;;;;;;-3.62;100.00;100862.56;4974906;28;20033;-69
2021/12/26 07:20:37;;;;;;;11.13;10.52;;;;;;;-3.25;100.00;100871.94;4973596;28;20026;-69
2021/12/26 07:23:05;;;;;;;11.57;10.98;;;;;;;-3.29;100.00;100875.63;4973657;28;20030;-68
2021/12/26 07:25:30;;;;;;;10.30;9.88;;;;;;;-3.78;100.00;100865.09;4975334;28;20496;-71
2021/12/26 07:27:56;;;;;;;11.05;10.55;;;;;;;-3.45;100.00;100862.59;4974597;28;20162;-69
2021/12/26 07:30:21;;;;;;;11.73;11.13;;;;;;;-3.64;100.00;100867.00;4973684;28;20030;-70
2021/12/26 07:32:47;;;;;;;11.65;11.05;;;;;;;-3.20;100.00;100874.31;4973804;28;20089;-71
2021/12/26 07:35:13;;;;;;;11.18;10.57;;;;;;;-2.96;100.00;100887.78;4973477;28;20022;-71
2021/12/26 07:37:38;;;;;;;12.30;11.57;;;;;;;-2.84;100.00;100882.78;4973414;28;20477;-70
2021/12/26 07:40:05;;;;;;;11.27;10.68;;;;;;;-2.95;100.00;100868.69;4973875;28;20026;-70
2021/12/26 07:42:31;;;;;;;10.60;10.10;;;;;;;-3.15;100.00;100878.34;4973316;28;20023;-67
2021/12/26 07:44:57;;;;;;;11.18;10.60;;;;;;;-3.09;100.00;100871.97;4973313;28;20150;-72
2021/12/26 07:47:23;;;;;;;11.40;10.80;;;;;;;-3.46;100.00;100875.59;4972730;28;20336;-68
2021/12/26 07:49:48;;;;;;;11.40;10.80;;;;;;;-3.25;100.00;100890.09;4973117;28;20027;-69
2021/12/26 07:52:18;;;;;;;12.35;11.65;;;;;;;-2.96;100.00;100899.00;4972749;28;20046;-68
2021/12/26 07:54:45;;;;;;;11.00;10.40;;;;;;;-2.24;100.00;100892.56;4973374;28;20037;-67
2021/12/26 07:57:11;;;;;;;10.70;10.20;;;;;;;-2.14;100.00;100870.34;4974119;28;20480;-70
2021/12/26 07:59:37;;;;;;;11.85;11.15;;;;;;;-1.96;100.00;100892.72;4972556;28;20085;-66
2021/12/26 08:02:03;;;;;;;10.95;10.27;;;;;;;-1.99;100.00;100899.84;4974497;28;20019;-70
2021/12/26 08:04:29;;;;;;;11.73;11.02;;;;;;;-1.97;100.00;100905.81;4972725;28;20106;-71
2021/12/26 08:06:55;;;;;;;10.25;9.75;;;;;;;-1.98;100.00;100909.34;4972602;28;20066;-70
2021/12/26 08:09:21;;;;;;;10.55;9.95;;;;;;;-1.81;100.00;100913.59;4971970;28;20077;-69
2021/12/26 08:11:46;;;;;;;11.02;10.43;;;;;;;-1.69;100.00;100908.53;4972707;28;20114;-67
2021/12/26 08:14:12;;;;;;;9.77;9.27;;;;;;;-1.71;100.00;100893.94;4972156;28;20102;-70
2021/12/26 08:16:38;;;;;;;10.00;9.50;;;;;;;-2.30;100.00;100895.50;4970429;28;20039;-71
2021/12/26 08:19:06;;;;;;;10.23;9.73;;;;;;;-2.29;100.00;100898.00;4973157;28;20023;-70
2021/12/26 08:21:32;;;;;;;10.18;9.68;;;;;;;-1.86;100.00;100903.44;4973104;28;20023;-70
2021/12/26 08:23:58;;;;;;;10.60;10.05;;;;;;;-2.64;100.00;100899.91;4972453;28;20042;-70
2021/12/26 08:26:23;;;;;;;10.93;10.30;;;;;;;-2.17;100.00;100885.28;4972359;28;20023;-67
2021/12/26 08:28:48;;;;;;;11.18;10.57;;;;;;;-2.67;100.00;100888.84;4972181;28;20121;-71
2021/12/26 08:31:16;;;;;;;10.95;10.35;;;;;;;-2.81;100.00;100894.75;4972563;28;20023;-70
2021/12/26 08:33:42;;;;;;;10.60;10.10;;;;;;;-2.69;100.00;100888.09;4972585;28;20031;-69
2021/12/26 08:36:07;;;;;;;10.52;10.02;;;;;;;-2.92;100.00;100895.31;4972815;28;20037;-67
2021/12/26 08:38:33;;;;;;;11.15;10.55;;;;;;;-2.72;100.00;100880.44;4973212;28;20026;-71
2021/12/26 08:40:59;;;;;;;10.73;10.23;;;;;;;-2.16;100.00;100882.59;4973652;28;20031;-67
2021/12/26 08:43:25;;;;;;;10.20;9.70;;;;;;;-2.00;100.00;100883.41;4973061;28;20058;-68
2021/12/26 08:45:50;;;;;;;10.15;9.65;;;;;;;-1.51;100.00;100883.22;4973059;28;20097;-69
2021/12/26 08:48:16;;;;;;;10.20;9.70;;;;;;;-1.76;100.00;100873.41;4972457;28;20023;-69
2021/12/26 08:50:43;;;;;;;10.48;9.95;;;;;;;-1.56;100.00;100877.44;4972138;28;20057;-67
2021/12/26 08:53:09;;;;;;;10.88;10.27;;;;;;;-1.45;100.00;100879.44;4971918;28;20121;-71
2021/12/26 08:55:35;;;;;;;10.40;9.85;;;;;;;-1.30;100.00;100878.53;4973232;28;20027;-70
2021/12/26 08:58:01;;;;;;;10.85;10.25;;;;;;;-2.14;100.00;100875.53;4972187;28;20038;-68
2021/12/26 09:00:26;;;;;;;10.13;9.63;;;;;;;-1.60;100.00;100875.13;4972045;28;20391;-69
2021/12/26 09:02:53;;;;;;;10.13;9.60;;;;;;;-1.41;100.00;100879.16;4972354;28;20030;-70
2021/12/26 09:05:19;;;;;;;9.80;9.30;;;;;;;-1.59;100.00;100877.63;4972164;28;20508;-70
2021/12/26 09:07:44;;;;;;;10.15;9.65;;;;;;;-0.97;100.00;100878.28;4968577;28;20027;-71
2021/12/26 09:10:12;;;;;;;10.20;9.70;;;;;;;-1.30;100.00;100878.53;4963466;28;20035;-71
2021/12/26 09:12:38;;;;;;;10.25;9.75;;;;;;;-2.73;100.00;100877.00;4972039;28;20404;-67
2021/12/26 09:15:06;;;;;;;11.77;11.07;;;;;;;-2.68;100.00;100871.59;4971892;28;20035;-69
2021/12/26 09:17:31;;;;;;;11.60;10.90;;;;;;;-2.34;100.00;100868.84;4971787;28;20070;-70
2021/12/26 09:19:57;;;;;;;10.50;10.00;;;;;;;-3.24;100.00;100867.59;4974335;28;20054;-72
2021/12/26 09:22:22;;;;;;;11.38;10.77;;;;;;;-2.86;100.00;100868.22;4976065;28;20116;-71
2021/12/26 09:24:48;;;;;;;11.75;11.13;;;;;;;-3.35;100.00;100870.72;4975637;28;20057;-70
2021/12/26 09:27:15;;;;;;;11.85;11.25;;;;;;;-3.10;100.00;100872.91;4975644;28;20027;-68
2021/12/26 09:29:40;;;;;;;11.80;11.20;;;;;;;-2.44;100.00;100869.41;4975544;28;20019;-68
2021/12/26 09:32:07;;;;;;;11.38;10.77;;;;;;;-2.14;100.00;100872.09;4977069;28;20038;-69
2021/12/26 09:34:34;;;;;;;11.55;10.95;;;;;;;-3.06;100.00;100872.69;4976979;28;20019;-70
2021/12/26 09:37:01;;;;;;;10.70;10.20;;;;;;;-1.87;100.00;100880.13;4975343;28;20035;-66
2021/12/26 09:39:27;;;;;;;11.35;10.65;;;;;;;-1.79;100.00;100872.72;4976695;28;20500;-67
2021/12/26 09:41:53;;;;;;;10.20;9.70;;;;;;;-1.60;100.00;100870.75;4976765;28;20022;-71
2021/12/26 09:44:20;;;;;;;9.80;9.30;;;;;;;-1.54;100.00;100867.81;4975566;28;20030;-70
2021/12/26 09:46:46;;;;;;;11.05;10.45;;;;;;;-1.51;100.00;100865.00;4975373;28;20109;-70
2021/12/26 09:49:11;;;;;;;10.35;9.75;;;;;;;-2.55;100.00;100875.22;4975178;28;20093;-67
2021/12/26 09:51:37;;;;;;;10.75;10.15;;;;;;;-2.68;100.00;100874.19;4974663;28;20100;-66
2021/12/26 09:54:05;;;;;;;10.57;10.00;;;;;;;-1.82;100.00;100875.50;4974144;28;20429;-69
2021/12/26 09:56:32;;;;;;;10.23;9.73;;;;;;;-1.21;100.00;100879.75;4975209;28;20027;-68
2021/12/26 09:59:02;;;;;;;10.38;9.82;;;;;;;-1.14;100.00;100878.47;4974969;28;20322;-69
2021/12/26 10:01:37;;;;;;;10.07;9.57;;;;;;;-2.12;100.00;100873.72;4975129;28;20150;-71
2021/12/26 10:04:19;;;;;;;11.27;10.68;;;;;;;-1.93;100.00;100875.25;4975066;28;20030;-67
2021/12/26 10:06:46;;;;;;;11.52;10.82;;;;;;;-2.50;100.00;100865.38;4974744;28;20118;-70
2021/12/26 10:09:13;;;;;;;10.88;10.27;;;;;;;-2.70;100.00;100857.84;4970118;28;20382;-72
2021/12/26 10:11:44;;;;;;;11.18;10.57;;;;;;;-2.71;100.00;100858.78;4974995;28;20053;-70
2021/12/26 10:14:14;;;;;;;11.48;10.77;;;;;;;-2.89;100.00;100863.16;4974717;28;20022;-69
2021/12/26 10:16:50;;;;;;;11.65;10.98;;;;;;;-2.91;100.00;100865.00;4974755;28;20129;-70
2021/12/26 10:19:17;;;;;;;11.02;10.52;;;;;;;-2.80;100.00;100854.88;4974684;28;20082;-69
2021/12/26 10:21:45;;;;;;;11.18;10.57;;;;;;;-2.71;100.00;100856.19;4975906;28;20037;-71
2021/12/26 10:24:22;;;;;;;12.10;11.40;;;;;;;-2.60;100.00;100852.06;4973956;28;20041;-67
2021/12/26 10:26:53;;;;;;;11.27;10.68;;;;;;;-2.55;100.00;100857.88;4974177;28;20045;-72
2021/12/26 10:29:32;;;;;;;11.68;10.98;;;;;;;-1.70;100.00;100862.63;4974702;28;20035;-68
2021/12/26 10:32:17;;;;;;;10.20;9.70;;;;;;;-1.76;100.00;100862.16;4975040;28;20436;-71
2021/12/26 10:35:13;;;;;;;11.63;10.93;;;;;;;-1.78;100.00;100856.19;4974340;28;20031;-68
2021/12/26 10:37:42;;;;;;;11.00;10.40;;;;;;;-2.61;100.00;100847.81;4965423;28;20047;-69
2021/12/26 10:40:12;;;;;;;11.20;10.60;;;;;;;-2.84;100.00;100861.19;4974380;28;20199;-72
2021/12/26 10:42:48;;;;;;;10.32;9.82;;;;;;;-1.88;100.00;100845.47;4974497;28;20461;-70
2021/12/26 10:45:16;;;;;;;10.07;9.57;;;;;;;-1.70;100.00;100849.63;4974310;28;20432;-67
2021/12/26 10:47:44;;;;;;;10.00;9.50;;;;;;;-2.24;100.00;100854.41;4974021;28;20031;-68
2021/12/26 10:50:19;;;;;;;10.35;9.85;;;;;;;-1.46;100.00;100865.59;4974507;28;20048;-71
2021/12/26 10:52:58;;;;;;;11.07;10.48;;;;;;;-1.32;100.00;100858.72;4975285;28;20529;-68
2021/12/26 10:55:31;;;;;;;11.07;10.43;;;;;;;-2.74;100.00;100846.78;4974134;28;20035;-70
2021/12/26 10:57:59;;;;;;;10.85;10.25;;;;;;;-2.70;100.00;100840.50;4974162;28;20081;-72
2021/12/26 11:00:31;;;;;;;10.50;10.00;;;;;;;-2.17;100.00;100847.13;4973933;28;20093;-71
2021/12/26 11:03:03;;;;;;;10.40;9.90;;;;;;;-1.64;100.00;100845.84;4974229;28;20035;-70
2021/12/26 11:05:44;;;;;;;10.35;9.85;;;;;;;-1.26;100.00;100840.13;4972863;28;20165;-71
2021/12/26 11:08:14;;;;;;;10.07;9.57;;;;;;;-2.11;100.00;100836.38;4973678;28;20034;-68